This is the latest recevied weather packets stored in our database for station/object W5LND-10. If no packets are shown the sender has not sent any weather packets the latest 1 day(s).
| Time | Temp. | Humidity | Pressure | Rain* | Wind** | Luminosity | Snow |
|---|---|---|---|---|---|---|---|
| 1778098267 | 22.78° C | 42% | 1009.9 hPa | 0 mm | - | 1046 W/m² | - |
| 1778097967 | 22.78° C | 42% | 1009.9 hPa | 0 mm | - | 606 W/m² | - |
| 1778097667 | 22.78° C | 42% | 1009.8 hPa | 0 mm | - | 606 W/m² | - |
| 1778097367 | 22.22° C | 43% | 1010 hPa | 0 mm | - | 969 W/m² | - |
| 1778097067 | 22.22° C | 43% | 1010 hPa | 0 mm | - | 896 W/m² | - |
| 1778096767 | 22.78° C | 43% | 1010.1 hPa | 0 mm | - | 626 W/m² | - |
| 1778096467 | 22.22° C | 44% | 1010.1 hPa | 0 mm | - | 1053 W/m² | - |
| 1778095867 | 22.22° C | 44% | 1010.5 hPa | 0 mm | - | 717 W/m² | - |
| 1778095567 | 21.67° C | 44% | 1010.6 hPa | 0 mm | - | 1097 W/m² | - |
| 1778095267 | 21.67° C | 45% | 1010.7 hPa | 0 mm | - | 965 W/m² | - |
| 1778093767 | 21.11° C | 47% | 1011 hPa | 0 mm | - | 1202 W/m² | - |
| 1778093167 | 20.56° C | 47% | 1011.2 hPa | 0 mm | - | 1211 W/m² | - |
| 1778070968 | 10.56° C | 74% | 1009.3 hPa | 0 mm | - | 42 W/m² | - |
| 1778070668 | 10.56° C | 74% | 1009.1 hPa | 0 mm | - | 33 W/m² | - |
| 1778070368 | 11.11° C | 75% | 1008.7 hPa | 0 mm | - | 26 W/m² | - |
| 1778070068 | 11.11° C | 75% | 1008.3 hPa | 0 mm | - | 21 W/m² | - |
| 1778069468 | 11.11° C | 75% | 1008.1 hPa | 0 mm | - | 11 W/m² | - |
| 1778069168 | 11.11° C | 75% | 1008 hPa | 0 mm | - | 7 W/m² | - |
| 1778068868 | 11.11° C | 75% | 1007.9 hPa | 0 mm | - | 0 W/m² | - |
| 1778068268 | 11.11° C | 75% | 1007.6 hPa | 0 mm | - | 0 W/m² | - |
| 1778067968 | 11.11° C | 75% | 1007.6 hPa | 0 mm | - | 0 W/m² | - |
| 1778067668 | 11.11° C | 75% | 1007.4 hPa | 0 mm | - | 0 W/m² | - |
| 1778067368 | 11.11° C | 75% | 1007.3 hPa | 0 mm | - | 0 W/m² | - |
| 1778067068 | 11.11° C | 74% | 1007.4 hPa | 0 mm | - | 0 W/m² | - |
| 1778066768 | 11.11° C | 74% | 1007.2 hPa | 0 mm | - | 0 W/m² | - |
* Rain latest hour (hover to see other rain measurements)
** Current wind speed in m/s (hover to see current wind gust speed)